sensor_id;sensor_type;location;lat;lon;timestamp;pressure;altitude;pressure_sealevel;temperature;humidity
15678;BME280;7939;50.814;6.368;2024-02-21T00:00:15;100647.53;;;12.36;61.95
15678;BME280;7939;50.814;6.368;2024-02-21T00:02:42;100656.03;;;12.32;61.49
15678;BME280;7939;50.814;6.368;2024-02-21T00:05:09;100647.53;;;12.34;62.25
15678;BME280;7939;50.814;6.368;2024-02-21T00:07:36;100642.41;;;12.34;62.49
15678;BME280;7939;50.814;6.368;2024-02-21T00:10:02;100642.38;;;12.31;62.24
15678;BME280;7939;50.814;6.368;2024-02-21T00:12:29;100636.44;;;12.37;61.94
15678;BME280;7939;50.814;6.368;2024-02-21T00:14:56;100637.28;;;12.36;62.37
15678;BME280;7939;50.814;6.368;2024-02-21T00:17:24;100621.06;;;12.32;62.00
15678;BME280;7939;50.814;6.368;2024-02-21T00:19:51;100613.34;;;12.32;62.22
15678;BME280;7939;50.814;6.368;2024-02-21T00:22:18;100615.88;;;12.28;62.07
15678;BME280;7939;50.814;6.368;2024-02-21T00:24:44;100608.25;;;12.35;62.78
15678;BME280;7939;50.814;6.368;2024-02-21T00:27:11;100608.22;;;12.34;62.39
15678;BME280;7939;50.814;6.368;2024-02-21T00:29:38;100603.94;;;12.30;62.59
15678;BME280;7939;50.814;6.368;2024-02-21T00:32:05;100596.25;;;12.31;62.67
15678;BME280;7939;50.814;6.368;2024-02-21T00:34:33;100607.34;;;12.30;61.84
15678;BME280;7939;50.814;6.368;2024-02-21T00:37:00;100611.63;;;12.28;61.54
15678;BME280;7939;50.814;6.368;2024-02-21T00:39:27;100601.38;;;12.31;61.70
15678;BME280;7939;50.814;6.368;2024-02-21T00:41:54;100607.34;;;12.29;61.72
15678;BME280;7939;50.814;6.368;2024-02-21T00:44:20;100608.19;;;12.29;62.86
15678;BME280;7939;50.814;6.368;2024-02-21T00:46:47;100603.94;;;12.27;62.79
15678;BME280;7939;50.814;6.368;2024-02-21T00:49:14;100605.63;;;12.28;62.89
15678;BME280;7939;50.814;6.368;2024-02-21T00:51:42;100598.81;;;12.30;62.57
15678;BME280;7939;50.814;6.368;2024-02-21T00:54:09;100597.09;;;12.26;62.20
15678;BME280;7939;50.814;6.368;2024-02-21T00:56:35;100591.97;;;12.30;63.22
15678;BME280;7939;50.814;6.368;2024-02-21T00:59:02;100585.13;;;12.26;62.03
15678;BME280;7939;50.814;6.368;2024-02-21T01:01:29;100574.88;;;12.26;62.10
15678;BME280;7939;50.814;6.368;2024-02-21T01:03:55;100573.16;;;12.28;62.32
15678;BME280;7939;50.814;6.368;2024-02-21T01:06:22;100572.28;;;12.25;62.69
15678;BME280;7939;50.814;6.368;2024-02-21T01:08:50;100570.59;;;12.27;62.89
15678;BME280;7939;50.814;6.368;2024-02-21T01:11:17;100567.19;;;12.26;63.35
15678;BME280;7939;50.814;6.368;2024-02-21T01:13:44;100551.81;;;12.28;63.24
15678;BME280;7939;50.814;6.368;2024-02-21T01:16:11;100557.78;;;12.28;63.38
15678;BME280;7939;50.814;6.368;2024-02-21T01:18:38;100560.34;;;12.27;61.95
15678;BME280;7939;50.814;6.368;2024-02-21T01:21:05;100557.78;;;12.27;62.91
15678;BME280;7939;50.814;6.368;2024-02-21T01:23:32;100554.34;;;12.23;62.86
15678;BME280;7939;50.814;6.368;2024-02-21T01:26:00;100562.03;;;12.20;62.22
15678;BME280;7939;50.814;6.368;2024-02-21T01:28:27;100562.06;;;12.26;62.46
15678;BME280;7939;50.814;6.368;2024-02-21T01:30:53;100562.88;;;12.22;61.87
15678;BME280;7939;50.814;6.368;2024-02-21T01:33:20;100556.91;;;12.23;62.04
15678;BME280;7939;50.814;6.368;2024-02-21T01:35:47;100562.88;;;12.25;62.62
15678;BME280;7939;50.814;6.368;2024-02-21T01:38:14;100553.50;;;12.23;62.57
15678;BME280;7939;50.814;6.368;2024-02-21T01:40:41;100559.50;;;12.28;63.28
15678;BME280;7939;50.814;6.368;2024-02-21T01:43:17;100557.75;;;12.24;62.83
15678;BME280;7939;50.814;6.368;2024-02-21T01:45:48;100557.75;;;12.24;62.23
15678;BME280;7939;50.814;6.368;2024-02-21T01:48:17;100550.97;;;12.26;62.54
15678;BME280;7939;50.814;6.368;2024-02-21T01:50:44;100546.66;;;12.23;62.10
15678;BME280;7939;50.814;6.368;2024-02-21T01:53:12;100533.84;;;12.20;62.81
15678;BME280;7939;50.814;6.368;2024-02-21T01:55:44;100537.25;;;12.24;62.61
15678;BME280;7939;50.814;6.368;2024-02-21T01:58:11;100531.28;;;12.25;62.58
15678;BME280;7939;50.814;6.368;2024-02-21T02:00:40;100533.03;;;12.26;62.22
15678;BME280;7939;50.814;6.368;2024-02-21T02:03:10;100533.84;;;12.23;62.25
15678;BME280;7939;50.814;6.368;2024-02-21T02:05:43;100536.41;;;12.25;62.57
15678;BME280;7939;50.814;6.368;2024-02-21T02:08:10;100527.03;;;12.27;62.25
15678;BME280;7939;50.814;6.368;2024-02-21T02:10:37;100524.47;;;12.28;63.49
15678;BME280;7939;50.814;6.368;2024-02-21T02:13:04;100518.50;;;12.28;62.72
15678;BME280;7939;50.814;6.368;2024-02-21T02:15:37;100509.09;;;12.27;63.79
15678;BME280;7939;50.814;6.368;2024-02-21T02:18:06;100501.41;;;12.30;62.34
15678;BME280;7939;50.814;6.368;2024-02-21T02:20:33;100500.59;;;12.32;62.86
15678;BME280;7939;50.814;6.368;2024-02-21T02:23:00;100501.41;;;12.30;62.91
15678;BME280;7939;50.814;6.368;2024-02-21T02:25:29;100498.00;;;12.31;63.26
15678;BME280;7939;50.814;6.368;2024-02-21T02:27:56;100503.97;;;12.31;63.81
15678;BME280;7939;50.814;6.368;2024-02-21T02:30:22;100503.97;;;12.28;63.54
15678;BME280;7939;50.814;6.368;2024-02-21T02:32:49;100497.16;;;12.30;63.35
15678;BME280;7939;50.814;6.368;2024-02-21T02:35:16;100502.28;;;12.30;62.38
15678;BME280;7939;50.814;6.368;2024-02-21T02:37:48;100498.84;;;12.30;62.66
15678;BME280;7939;50.814;6.368;2024-02-21T02:40:14;100503.13;;;12.29;62.28
15678;BME280;7939;50.814;6.368;2024-02-21T02:42:43;100489.47;;;12.27;62.46
15678;BME280;7939;50.814;6.368;2024-02-21T02:45:10;100485.22;;;12.34;62.57
15678;BME280;7939;50.814;6.368;2024-02-21T02:47:36;100480.09;;;12.32;62.73
15678;BME280;7939;50.814;6.368;2024-02-21T02:50:04;100484.31;;;12.32;62.33
15678;BME280;7939;50.814;6.368;2024-02-21T02:52:31;100480.91;;;12.31;63.00
15678;BME280;7939;50.814;6.368;2024-02-21T02:54:58;100474.09;;;12.29;63.21
15678;BME280;7939;50.814;6.368;2024-02-21T02:57:25;100459.56;;;12.29;62.75
15678;BME280;7939;50.814;6.368;2024-02-21T02:59:53;100449.34;;;12.32;63.08
15678;BME280;7939;50.814;6.368;2024-02-21T03:02:19;100445.06;;;12.36;62.85
15678;BME280;7939;50.814;6.368;2024-02-21T03:04:46;100441.66;;;12.35;62.60
15678;BME280;7939;50.814;6.368;2024-02-21T03:07:13;100433.09;;;12.36;62.95
15678;BME280;7939;50.814;6.368;2024-02-21T03:09:40;100422.00;;;12.34;63.28
15678;BME280;7939;50.814;6.368;2024-02-21T03:12:08;100422.84;;;12.36;63.18
15678;BME280;7939;50.814;6.368;2024-02-21T03:14:35;100434.81;;;12.34;63.64
15678;BME280;7939;50.814;6.368;2024-02-21T03:17:03;100435.66;;;12.35;62.79
15678;BME280;7939;50.814;6.368;2024-02-21T03:19:30;100423.69;;;12.35;63.60
15678;BME280;7939;50.814;6.368;2024-02-21T03:21:57;100426.28;;;12.32;62.79
15678;BME280;7939;50.814;6.368;2024-02-21T03:24:23;100436.53;;;12.34;63.45
15678;BME280;7939;50.814;6.368;2024-02-21T03:26:50;100433.09;;;12.27;63.27
15678;BME280;7939;50.814;6.368;2024-02-21T03:29:17;100437.34;;;12.30;62.41
15678;BME280;7939;50.814;6.368;2024-02-21T03:31:43;100425.38;;;12.30;63.16
15678;BME280;7939;50.814;6.368;2024-02-21T03:34:12;100421.97;;;12.31;63.38
15678;BME280;7939;50.814;6.368;2024-02-21T03:36:38;100431.41;;;12.34;63.33
15678;BME280;7939;50.814;6.368;2024-02-21T03:39:05;100429.66;;;12.27;62.34
15678;BME280;7939;50.814;6.368;2024-02-21T03:41:33;100415.13;;;12.30;62.21
15678;BME280;7939;50.814;6.368;2024-02-21T03:44:00;100420.25;;;12.30;63.39
15678;BME280;7939;50.814;6.368;2024-02-21T03:46:27;100423.66;;;12.25;62.66
15678;BME280;7939;50.814;6.368;2024-02-21T03:48:53;100422.81;;;12.32;63.65
15678;BME280;7939;50.814;6.368;2024-02-21T03:51:21;100420.25;;;12.29;62.94
15678;BME280;7939;50.814;6.368;2024-02-21T03:53:48;100418.53;;;12.25;62.62
15678;BME280;7939;50.814;6.368;2024-02-21T03:56:15;100407.44;;;12.29;62.89
15678;BME280;7939;50.814;6.368;2024-02-21T03:58:41;100413.44;;;12.29;63.13
15678;BME280;7939;50.814;6.368;2024-02-21T04:01:08;100422.81;;;12.29;62.54
15678;BME280;7939;50.814;6.368;2024-02-21T04:03:35;100426.28;;;12.32;63.45
15678;BME280;7939;50.814;6.368;2024-02-21T04:06:03;100413.44;;;12.31;62.25
15678;BME280;7939;50.814;6.368;2024-02-21T04:08:31;100412.56;;;12.30;62.17
15678;BME280;7939;50.814;6.368;2024-02-21T04:10:58;100403.22;;;12.32;63.47
15678;BME280;7939;50.814;6.368;2024-02-21T04:13:24;100397.19;;;12.32;63.00
15678;BME280;7939;50.814;6.368;2024-02-21T04:15:51;100392.94;;;12.34;61.91
15678;BME280;7939;50.814;6.368;2024-02-21T04:18:18;100393.81;;;12.33;63.43
15678;BME280;7939;50.814;6.368;2024-02-21T04:20:44;100397.19;;;12.30;63.46
15678;BME280;7939;50.814;6.368;2024-02-21T04:23:11;100399.75;;;12.30;63.14
15678;BME280;7939;50.814;6.368;2024-02-21T04:25:39;100391.25;;;12.33;62.99
15678;BME280;7939;50.814;6.368;2024-02-21T04:28:06;100395.50;;;12.29;63.31
15678;BME280;7939;50.814;6.368;2024-02-21T04:30:33;100404.03;;;12.28;63.22
15678;BME280;7939;50.814;6.368;2024-02-21T04:32:59;100394.66;;;12.26;62.88
15678;BME280;7939;50.814;6.368;2024-02-21T04:35:26;100387.81;;;12.28;62.95
15678;BME280;7939;50.814;6.368;2024-02-21T04:37:53;100389.50;;;12.27;62.03
15678;BME280;7939;50.814;6.368;2024-02-21T04:40:19;100391.22;;;12.30;62.80
15678;BME280;7939;50.814;6.368;2024-02-21T04:42:47;100392.06;;;12.29;62.53
15678;BME280;7939;50.814;6.368;2024-02-21T04:45:14;100380.13;;;12.26;63.05
15678;BME280;7939;50.814;6.368;2024-02-21T04:47:42;100374.16;;;12.26;62.88
15678;BME280;7939;50.814;6.368;2024-02-21T04:50:10;100376.69;;;12.23;62.38
15678;BME280;7939;50.814;6.368;2024-02-21T04:52:36;100372.44;;;12.29;63.35
15678;BME280;7939;50.814;6.368;2024-02-21T04:55:03;100372.44;;;12.29;62.60
15678;BME280;7939;50.814;6.368;2024-02-21T04:57:31;100378.44;;;12.33;62.50
15678;BME280;7939;50.814;6.368;2024-02-21T04:59:59;100371.59;;;12.33;63.27
15678;BME280;7939;50.814;6.368;2024-02-21T05:02:26;100376.72;;;12.33;63.66
15678;BME280;7939;50.814;6.368;2024-02-21T05:04:52;100378.44;;;12.34;63.43
15678;BME280;7939;50.814;6.368;2024-02-21T05:07:19;100376.72;;;12.35;63.15
15678;BME280;7939;50.814;6.368;2024-02-21T05:09:46;100372.44;;;12.35;63.23
15678;BME280;7939;50.814;6.368;2024-02-21T05:12:13;100361.34;;;12.36;62.98
15678;BME280;7939;50.814;6.368;2024-02-21T05:14:39;100370.72;;;12.37;63.43
15678;BME280;7939;50.814;6.368;2024-02-21T05:17:07;100363.03;;;12.37;63.27
15678;BME280;7939;50.814;6.368;2024-02-21T05:19:34;100357.94;;;12.33;63.20
15678;BME280;7939;50.814;6.368;2024-02-21T05:22:01;100363.91;;;12.33;63.25
15678;BME280;7939;50.814;6.368;2024-02-21T05:24:27;100362.16;;;12.31;62.12
15678;BME280;7939;50.814;6.368;2024-02-21T05:26:55;100365.63;;;12.33;63.00
15678;BME280;7939;50.814;6.368;2024-02-21T05:29:22;100362.16;;;12.31;63.35
15678;BME280;7939;50.814;6.368;2024-02-21T05:31:55;100348.50;;;12.30;63.08
15678;BME280;7939;50.814;6.368;2024-02-21T05:34:24;100352.78;;;12.22;62.07
15678;BME280;7939;50.814;6.368;2024-02-21T05:36:52;100357.00;;;12.19;62.60
15678;BME280;7939;50.814;6.368;2024-02-21T05:39:19;100352.78;;;12.22;62.66
15678;BME280;7939;50.814;6.368;2024-02-21T05:41:48;100362.19;;;12.26;63.25
15678;BME280;7939;50.814;6.368;2024-02-21T05:44:15;100353.63;;;12.32;63.32
15678;BME280;7939;50.814;6.368;2024-02-21T05:46:41;100357.06;;;12.32;63.62
15678;BME280;7939;50.814;6.368;2024-02-21T05:49:08;100345.09;;;12.28;62.50
15678;BME280;7939;50.814;6.368;2024-02-21T05:51:36;100349.34;;;12.25;62.29
15678;BME280;7939;50.814;6.368;2024-02-21T05:54:03;100338.25;;;12.30;62.77
15678;BME280;7939;50.814;6.368;2024-02-21T05:56:30;100335.69;;;12.30;63.41
15678;BME280;7939;50.814;6.368;2024-02-21T05:58:56;100334.84;;;12.28;63.45
15678;BME280;7939;50.814;6.368;2024-02-21T06:01:23;100324.59;;;12.28;63.22
15678;BME280;7939;50.814;6.368;2024-02-21T06:03:50;100305.81;;;12.34;63.74
15678;BME280;7939;50.814;6.368;2024-02-21T06:06:16;100304.94;;;12.38;63.55
15678;BME280;7939;50.814;6.368;2024-02-21T06:08:44;100304.97;;;12.35;62.96
15678;BME280;7939;50.814;6.368;2024-02-21T06:11:11;100305.81;;;12.37;63.25
15678;BME280;7939;50.814;6.368;2024-02-21T06:13:38;100319.50;;;12.40;62.98
15678;BME280;7939;50.814;6.368;2024-02-21T06:16:06;100313.50;;;12.40;63.75
15678;BME280;7939;50.814;6.368;2024-02-21T06:18:35;100318.66;;;12.38;63.24
15678;BME280;7939;50.814;6.368;2024-02-21T06:21:02;100322.06;;;12.40;63.44
15678;BME280;7939;50.814;6.368;2024-02-21T06:23:29;100318.63;;;12.43;63.43
15678;BME280;7939;50.814;6.368;2024-02-21T06:25:57;100321.22;;;12.45;62.86
15678;BME280;7939;50.814;6.368;2024-02-21T06:28:24;100323.78;;;12.45;62.97
15678;BME280;7939;50.814;6.368;2024-02-21T06:30:51;100323.78;;;12.46;63.20
15678;BME280;7939;50.814;6.368;2024-02-21T06:33:17;100322.06;;;12.45;63.48
15678;BME280;7939;50.814;6.368;2024-02-21T06:35:48;100315.22;;;12.47;62.78
15678;BME280;7939;50.814;6.368;2024-02-21T06:38:17;100310.09;;;12.47;63.55
15678;BME280;7939;50.814;6.368;2024-02-21T06:40:44;100298.97;;;12.43;63.55
15678;BME280;7939;50.814;6.368;2024-02-21T06:43:17;100300.69;;;12.41;63.06
15678;BME280;7939;50.814;6.368;2024-02-21T06:45:44;100295.56;;;12.41;62.80
15678;BME280;7939;50.814;6.368;2024-02-21T06:48:13;100296.41;;;12.43;63.08
15678;BME280;7939;50.814;6.368;2024-02-21T06:50:39;100297.28;;;12.39;62.63
15678;BME280;7939;50.814;6.368;2024-02-21T06:53:06;100298.97;;;12.43;63.14
15678;BME280;7939;50.814;6.368;2024-02-21T06:55:33;100291.28;;;12.40;63.95
15678;BME280;7939;50.814;6.368;2024-02-21T06:58:00;100294.69;;;12.44;63.56
15678;BME280;7939;50.814;6.368;2024-02-21T07:00:28;100290.44;;;12.46;63.64
15678;BME280;7939;50.814;6.368;2024-02-21T07:02:55;100287.88;;;12.45;64.02
15678;BME280;7939;50.814;6.368;2024-02-21T07:05:22;100292.16;;;12.47;62.45
15678;BME280;7939;50.814;6.368;2024-02-21T07:07:48;100287.00;;;12.44;62.54
15678;BME280;7939;50.814;6.368;2024-02-21T07:10:15;100295.59;;;12.45;63.80
15678;BME280;7939;50.814;6.368;2024-02-21T07:12:41;100287.88;;;12.43;63.72
15678;BME280;7939;50.814;6.368;2024-02-21T07:15:08;100292.13;;;12.44;64.17
15678;BME280;7939;50.814;6.368;2024-02-21T07:17:36;100287.88;;;12.45;63.72
15678;BME280;7939;50.814;6.368;2024-02-21T07:20:04;100288.72;;;12.42;63.45
15678;BME280;7939;50.814;6.368;2024-02-21T07:22:31;100293.88;;;12.45;64.26
15678;BME280;7939;50.814;6.368;2024-02-21T07:24:57;100295.59;;;12.45;62.91
15678;BME280;7939;50.814;6.368;2024-02-21T07:27:24;100300.69;;;12.43;63.12
15678;BME280;7939;50.814;6.368;2024-02-21T07:29:53;100295.56;;;12.40;63.75
15678;BME280;7939;50.814;6.368;2024-02-21T07:32:20;100297.25;;;12.44;62.67
15678;BME280;7939;50.814;6.368;2024-02-21T07:34:48;100293.84;;;12.43;62.93
15678;BME280;7939;50.814;6.368;2024-02-21T07:37:15;100297.28;;;12.39;63.10
15678;BME280;7939;50.814;6.368;2024-02-21T07:39:41;100296.41;;;12.43;62.95
15678;BME280;7939;50.814;6.368;2024-02-21T07:42:08;100288.72;;;12.43;63.47
15678;BME280;7939;50.814;6.368;2024-02-21T07:44:35;100288.72;;;12.42;63.38
15678;BME280;7939;50.814;6.368;2024-02-21T07:47:01;100285.31;;;12.41;63.75
15678;BME280;7939;50.814;6.368;2024-02-21T07:49:28;100287.88;;;12.43;63.08
15678;BME280;7939;50.814;6.368;2024-02-21T07:51:56;100283.59;;;12.43;62.46
15678;BME280;7939;50.814;6.368;2024-02-21T07:54:23;100269.94;;;12.38;63.01
15678;BME280;7939;50.814;6.368;2024-02-21T07:56:50;100277.63;;;12.41;62.66
15678;BME280;7939;50.814;6.368;2024-02-21T07:59:16;100270.78;;;12.42;62.94
15678;BME280;7939;50.814;6.368;2024-02-21T08:01:43;100269.06;;;12.42;63.09
15678;BME280;7939;50.814;6.368;2024-02-21T08:04:11;100259.69;;;12.34;62.10
15678;BME280;7939;50.814;6.368;2024-02-21T08:06:37;100257.13;;;12.35;61.77
15678;BME280;7939;50.814;6.368;2024-02-21T08:09:05;100261.41;;;12.33;62.09
15678;BME280;7939;50.814;6.368;2024-02-21T08:11:32;100254.53;;;12.29;62.30
15678;BME280;7939;50.814;6.368;2024-02-21T08:13:59;100251.97;;;12.31;61.98
15678;BME280;7939;50.814;6.368;2024-02-21T08:16:26;100241.72;;;12.31;62.46
15678;BME280;7939;50.814;6.368;2024-02-21T08:18:53;100236.59;;;12.35;62.44
15678;BME280;7939;50.814;6.368;2024-02-21T08:21:19;100247.72;;;12.36;62.56
15678;BME280;7939;50.814;6.368;2024-02-21T08:23:46;100224.63;;;12.37;62.41
15678;BME280;7939;50.814;6.368;2024-02-21T08:26:18;100205.88;;;12.38;61.93
15678;BME280;7939;50.814;6.368;2024-02-21T08:28:44;100210.13;;;12.39;62.49
15678;BME280;7939;50.814;6.368;2024-02-21T08:31:18;100203.28;;;12.35;62.44
15678;BME280;7939;50.814;6.368;2024-02-21T08:33:45;100210.13;;;12.33;61.70
15678;BME280;7939;50.814;6.368;2024-02-21T08:36:17;100201.59;;;12.34;62.20
15678;BME280;7939;50.814;6.368;2024-02-21T08:38:44;100195.59;;;12.41;62.12
15678;BME280;7939;50.814;6.368;2024-02-21T08:41:10;100189.59;;;12.44;61.48
15678;BME280;7939;50.814;6.368;2024-02-21T08:43:38;100189.63;;;12.46;61.51
15678;BME280;7939;50.814;6.368;2024-02-21T08:46:05;100173.41;;;12.45;62.01
15678;BME280;7939;50.814;6.368;2024-02-21T08:48:32;100172.56;;;12.45;61.59
15678;BME280;7939;50.814;6.368;2024-02-21T08:50:58;100163.13;;;12.43;61.89
15678;BME280;7939;50.814;6.368;2024-02-21T08:53:25;100166.53;;;12.44;62.50
15678;BME280;7939;50.814;6.368;2024-02-21T08:55:52;100161.41;;;12.38;62.09
15678;BME280;7939;50.814;6.368;2024-02-21T08:58:18;100157.16;;;12.41;60.94
15678;BME280;7939;50.814;6.368;2024-02-21T09:00:46;100158.84;;;12.42;62.00
15678;BME280;7939;50.814;6.368;2024-02-21T09:03:13;100139.25;;;12.38;61.68
15678;BME280;7939;50.814;6.368;2024-02-21T09:05:40;100139.22;;;12.46;61.35
15678;BME280;7939;50.814;6.368;2024-02-21T09:08:07;100141.78;;;12.48;60.73
15678;BME280;7939;50.814;6.368;2024-02-21T09:10:33;100134.09;;;12.48;62.20
15678;BME280;7939;50.814;6.368;2024-02-21T09:13:00;100130.63;;;12.50;61.78
15678;BME280;7939;50.814;6.368;2024-02-21T09:15:29;100118.69;;;12.51;61.63
15678;BME280;7939;50.814;6.368;2024-02-21T09:17:57;100110.13;;;12.50;61.02
15678;BME280;7939;50.814;6.368;2024-02-21T09:20:23;100107.59;;;12.52;60.69
15678;BME280;7939;50.814;6.368;2024-02-21T09:22:50;100097.31;;;12.53;60.83
15678;BME280;7939;50.814;6.368;2024-02-21T09:25:18;100092.19;;;12.53;60.81
15678;BME280;7939;50.814;6.368;2024-02-21T09:27:45;100090.50;;;12.54;62.08
15678;BME280;7939;50.814;6.368;2024-02-21T09:30:12;100084.50;;;12.55;62.04
15678;BME280;7939;50.814;6.368;2024-02-21T09:32:38;100080.22;;;12.55;61.44
15678;BME280;7939;50.814;6.368;2024-02-21T09:35:07;100084.47;;;12.56;60.64
15678;BME280;7939;50.814;6.368;2024-02-21T09:37:34;100079.38;;;12.55;61.46
15678;BME280;7939;50.814;6.368;2024-02-21T09:40:01;100084.50;;;12.58;60.67
15678;BME280;7939;50.814;6.368;2024-02-21T09:42:37;100077.66;;;12.58;60.19
15678;BME280;7939;50.814;6.368;2024-02-21T09:45:07;100063.16;;;12.57;61.00
15678;BME280;7939;50.814;6.368;2024-02-21T09:47:40;100063.97;;;12.61;61.15
15678;BME280;7939;50.814;6.368;2024-02-21T09:50:12;100067.41;;;12.58;60.89
15678;BME280;7939;50.814;6.368;2024-02-21T09:52:41;100069.97;;;12.58;60.24
15678;BME280;7939;50.814;6.368;2024-02-21T09:55:10;100069.94;;;12.63;60.01
15678;BME280;7939;50.814;6.368;2024-02-21T09:57:38;100069.09;;;12.64;60.59
15678;BME280;7939;50.814;6.368;2024-02-21T10:00:06;100068.25;;;12.63;61.39
15678;BME280;7939;50.814;6.368;2024-02-21T10:02:33;100062.25;;;12.64;60.47
15678;BME280;7939;50.814;6.368;2024-02-21T10:05:00;100064.81;;;12.63;61.30
15678;BME280;7939;50.814;6.368;2024-02-21T10:07:30;100066.53;;;12.59;60.56
15678;BME280;7939;50.814;6.368;2024-02-21T10:10:01;100062.25;;;12.63;61.47
15678;BME280;7939;50.814;6.368;2024-02-21T10:12:28;100066.53;;;12.64;59.95
15678;BME280;7939;50.814;6.368;2024-02-21T10:15:00;100054.56;;;12.63;60.38
15678;BME280;7939;50.814;6.368;2024-02-21T10:17:27;100051.13;;;12.67;60.35
15678;BME280;7939;50.814;6.368;2024-02-21T10:19:53;100051.97;;;12.67;61.28
15678;BME280;7939;50.814;6.368;2024-02-21T10:22:20;100043.44;;;12.70;59.97
15678;BME280;7939;50.814;6.368;2024-02-21T10:24:48;100039.16;;;12.72;60.34
15678;BME280;7939;50.814;6.368;2024-02-21T10:27:15;100032.31;;;12.73;60.93
15678;BME280;7939;50.814;6.368;2024-02-21T10:29:42;100026.31;;;12.72;60.36
15678;BME280;7939;50.814;6.368;2024-02-21T10:32:09;100022.91;;;12.73;60.38
15678;BME280;7939;50.814;6.368;2024-02-21T10:34:37;100021.16;;;12.75;61.25
15678;BME280;7939;50.814;6.368;2024-02-21T10:37:05;100008.34;;;12.75;61.39
15678;BME280;7939;50.814;6.368;2024-02-21T10:39:32;100009.19;;;12.79;60.83
15678;BME280;7939;50.814;6.368;2024-02-21T10:42:02;100003.19;;;12.80;60.51
15678;BME280;7939;50.814;6.368;2024-02-21T10:44:31;100003.19;;;12.80;60.49
15678;BME280;7939;50.814;6.368;2024-02-21T10:46:58;100000.63;;;12.81;61.21
15678;BME280;7939;50.814;6.368;2024-02-21T10:49:26;99988.66;;;12.82;60.78
15678;BME280;7939;50.814;6.368;2024-02-21T10:51:58;99968.13;;;12.83;61.40
15678;BME280;7939;50.814;6.368;2024-02-21T10:54:40;99964.72;;;12.83;60.69
15678;BME280;7939;50.814;6.368;2024-02-21T10:57:12;99960.41;;;12.86;61.02
15678;BME280;7939;50.814;6.368;2024-02-21T10:59:40;99944.16;;;12.87;60.82
15678;BME280;7939;50.814;6.368;2024-02-21T11:02:07;99941.59;;;12.87;61.67
15678;BME280;7939;50.814;6.368;2024-02-21T11:04:34;99943.28;;;12.91;61.21
15678;BME280;7939;50.814;6.368;2024-02-21T11:07:03;99935.59;;;12.90;60.24
15678;BME280;7939;50.814;6.368;2024-02-21T11:09:30;99928.75;;;12.90;61.23
15678;BME280;7939;50.814;6.368;2024-02-21T11:11:58;99914.22;;;12.91;60.46
15678;BME280;7939;50.814;6.368;2024-02-21T11:14:28;99903.94;;;12.92;61.29
15678;BME280;7939;50.814;6.368;2024-02-21T11:16:58;99900.50;;;12.93;61.26
15678;BME280;7939;50.814;6.368;2024-02-21T11:19:25;99888.53;;;12.95;61.52
15678;BME280;7939;50.814;6.368;2024-02-21T11:21:53;99870.56;;;12.97;61.43
15678;BME280;7939;50.814;6.368;2024-02-21T11:24:27;99868.84;;;12.98;61.16
15678;BME280;7939;50.814;6.368;2024-02-21T11:26:54;99857.72;;;12.99;61.37
15678;BME280;7939;50.814;6.368;2024-02-21T11:29:24;99850.84;;;13.01;61.46
15678;BME280;7939;50.814;6.368;2024-02-21T11:31:53;99842.31;;;13.02;61.28
15678;BME280;7939;50.814;6.368;2024-02-21T11:34:19;99828.69;;;12.96;61.10
15678;BME280;7939;50.814;6.368;2024-02-21T11:36:47;99827.75;;;13.01;62.21
15678;BME280;7939;50.814;6.368;2024-02-21T11:39:18;99809.81;;;13.01;60.69
15678;BME280;7939;50.814;6.368;2024-02-21T11:41:46;99797.84;;;13.00;60.61
15678;BME280;7939;50.814;6.368;2024-02-21T11:44:13;99797.88;;;13.01;61.67
15678;BME280;7939;50.814;6.368;2024-02-21T11:46:40;99794.41;;;13.04;61.33
15678;BME280;7939;50.814;6.368;2024-02-21T11:49:08;99784.13;;;13.05;61.07
15678;BME280;7939;50.814;6.368;2024-02-21T11:51:35;99771.28;;;13.08;60.50
15678;BME280;7939;50.814;6.368;2024-02-21T11:54:01;99763.56;;;13.10;61.20
15678;BME280;7939;50.814;6.368;2024-02-21T11:56:28;99751.56;;;13.10;61.11
15678;BME280;7939;50.814;6.368;2024-02-21T11:58:55;99749.84;;;13.12;61.60
15678;BME280;7939;50.814;6.368;2024-02-21T12:01:21;99741.28;;;13.12;60.74
15678;BME280;7939;50.814;6.368;2024-02-21T12:03:48;99724.19;;;13.14;60.67
15678;BME280;7939;50.814;6.368;2024-02-21T12:06:18;99715.63;;;13.15;61.12
15678;BME280;7939;50.814;6.368;2024-02-21T12:08:46;99681.38;;;13.16;60.59
15678;BME280;7939;50.814;6.368;2024-02-21T12:11:20;99657.44;;;13.17;61.51
15678;BME280;7939;50.814;6.368;2024-02-21T12:13:47;99624.03;;;13.20;61.60
15678;BME280;7939;50.814;6.368;2024-02-21T12:16:17;99600.06;;;13.19;61.53
15678;BME280;7939;50.814;6.368;2024-02-21T12:18:44;99598.38;;;13.21;61.50
15678;BME280;7939;50.814;6.368;2024-02-21T12:21:11;99630.91;;;13.21;61.59
15678;BME280;7939;50.814;6.368;2024-02-21T12:23:40;99654.84;;;13.20;60.91
15678;BME280;7939;50.814;6.368;2024-02-21T12:26:06;99676.25;;;13.16;59.25
15678;BME280;7939;50.814;6.368;2024-02-21T12:28:33;99678.78;;;13.17;59.45
15678;BME280;7939;50.814;6.368;2024-02-21T12:31:00;99651.47;;;13.15;59.40
15678;BME280;7939;50.814;6.368;2024-02-21T12:33:30;99648.94;;;13.12;60.21
15678;BME280;7939;50.814;6.368;2024-02-21T12:35:57;99647.22;;;13.14;60.85
15678;BME280;7939;50.814;6.368;2024-02-21T12:38:23;99630.94;;;13.15;60.32
15678;BME280;7939;50.814;6.368;2024-02-21T12:40:52;99633.47;;;13.18;58.52
15678;BME280;7939;50.814;6.368;2024-02-21T12:43:18;99621.47;;;13.21;59.48
15678;BME280;7939;50.814;6.368;2024-02-21T12:45:45;99616.34;;;13.21;58.47
15678;BME280;7939;50.814;6.368;2024-02-21T12:48:12;99617.13;;;13.25;59.36
15678;BME280;7939;50.814;6.368;2024-02-21T12:50:39;99614.63;;;13.22;58.27
15678;BME280;7939;50.814;6.368;2024-02-21T12:53:07;99615.44;;;13.24;58.82
15678;BME280;7939;50.814;6.368;2024-02-21T12:55:33;99616.28;;;13.26;58.64
15678;BME280;7939;50.814;6.368;2024-02-21T12:58:04;99611.19;;;13.23;58.43
15678;BME280;7939;50.814;6.368;2024-02-21T13:00:32;99600.03;;;13.26;58.03
15678;BME280;7939;50.814;6.368;2024-02-21T13:03:00;99615.41;;;13.29;58.67